createdAt,value
2019-02-06T00:01:59.774Z,54.30
2019-02-06T00:04:27.811Z,54.00
2019-02-06T00:06:55.810Z,54.70
2019-02-06T00:09:23.790Z,54.50
2019-02-06T00:11:52.298Z,55.00
2019-02-06T00:14:20.823Z,54.70
2019-02-06T00:16:49.203Z,54.70
2019-02-06T00:19:18.163Z,54.20
2019-02-06T00:21:46.786Z,55.80
2019-02-06T00:24:15.204Z,55.80
2019-02-06T00:26:44.622Z,54.70
2019-02-06T00:29:12.554Z,55.30
2019-02-06T00:31:53.358Z,55.90
2019-02-06T00:34:21.903Z,55.70
2019-02-06T00:36:50.287Z,55.20
2019-02-06T00:39:18.501Z,55.10
2019-02-06T00:41:46.838Z,55.50
2019-02-06T00:44:15.321Z,55.00
2019-02-06T00:46:44.100Z,54.80
2019-02-06T00:49:12.509Z,56.70
2019-02-06T00:51:42.110Z,55.60
2019-02-06T00:54:10.215Z,55.20
2019-02-06T00:56:38.623Z,54.20
2019-02-06T00:59:06.809Z,54.80
2019-02-06T01:01:35.223Z,55.00
2019-02-06T01:04:03.806Z,55.20
2019-02-06T01:06:31.723Z,55.30
2019-02-06T01:08:59.715Z,54.90
2019-02-06T01:11:28.283Z,54.60
2019-02-06T01:13:56.816Z,54.30
2019-02-06T01:16:25.368Z,54.50
2019-02-06T01:18:53.903Z,54.60
2019-02-06T01:21:22.472Z,55.10
2019-02-06T01:23:51.440Z,55.80
2019-02-06T01:26:19.442Z,56.30
2019-02-06T01:28:47.471Z,56.60
2019-02-06T01:31:20.434Z,56.60
2019-02-06T01:33:48.516Z,56.70
2019-02-06T01:36:16.954Z,57.60
2019-02-06T01:38:45.951Z,57.30
2019-02-06T01:41:14.280Z,57.70
2019-02-06T01:43:42.140Z,57.20
2019-02-06T01:46:10.583Z,57.90
2019-02-06T01:48:39.155Z,57.90
2019-02-06T01:51:07.729Z,57.40
2019-02-06T01:53:36.240Z,57.80
2019-02-06T01:56:04.769Z,58.40
2019-02-06T01:58:33.032Z,57.00
2019-02-06T02:01:01.244Z,57.30
2019-02-06T02:03:29.619Z,56.90
2019-02-06T02:06:02.423Z,57.00
2019-02-06T02:08:29.390Z,57.50
2019-02-06T02:10:58.143Z,57.70
2019-02-06T02:13:26.362Z,58.20
2019-02-06T02:15:54.943Z,58.20
2019-02-06T02:18:23.446Z,59.00
2019-02-06T02:20:51.856Z,58.40
2019-02-06T02:23:19.886Z,58.40
2019-02-06T02:25:48.207Z,59.20
2019-02-06T02:28:16.709Z,59.20
2019-02-06T02:30:48.205Z,58.90
2019-02-06T02:33:16.684Z,58.40
2019-02-06T02:35:44.963Z,58.00
2019-02-06T02:38:13.393Z,57.80
2019-02-06T02:40:41.889Z,56.50
2019-02-06T02:43:10.495Z,57.80
2019-02-06T02:45:38.640Z,57.60
2019-02-06T02:48:07.136Z,58.00
2019-02-06T02:50:35.497Z,58.60
2019-02-06T02:53:04.143Z,58.90
2019-02-06T02:55:32.529Z,59.40
2019-02-06T02:58:00.689Z,59.30
2019-02-06T03:00:42.357Z,59.20
2019-02-06T03:03:33.039Z,57.80
2019-02-06T03:06:01.623Z,57.20
2019-02-06T03:08:29.784Z,56.40
2019-02-06T03:10:58.265Z,57.70
2019-02-06T03:13:26.722Z,58.70
2019-02-06T03:15:55.010Z,58.20
2019-02-06T03:18:23.489Z,57.50
2019-02-06T03:20:52.002Z,57.70
2019-02-06T03:23:19.981Z,57.50
2019-02-06T03:25:48.125Z,56.80
2019-02-06T03:28:16.523Z,56.20
2019-02-06T03:30:44.982Z,56.80
2019-02-06T03:33:13.367Z,57.10
2019-02-06T03:35:41.659Z,56.90
2019-02-06T03:38:10.172Z,55.80
2019-02-06T03:40:38.914Z,55.60
2019-02-06T03:43:07.248Z,55.20
2019-02-06T03:45:35.676Z,55.30
2019-02-06T03:48:04.149Z,55.60
2019-02-06T03:50:32.746Z,55.90
2019-02-06T03:53:01.180Z,55.70
2019-02-06T03:55:29.859Z,55.60
2019-02-06T03:57:58.504Z,55.00
2019-02-06T04:00:26.543Z,55.60
2019-02-06T04:02:54.690Z,55.30
2019-02-06T04:05:22.737Z,55.00
2019-02-06T04:07:50.735Z,55.90
2019-02-06T04:10:19.175Z,56.50
2019-02-06T04:12:47.664Z,55.50
2019-02-06T04:15:16.326Z,55.60
2019-02-06T04:17:44.706Z,55.90
2019-02-06T04:20:12.939Z,53.90
2019-02-06T04:22:40.878Z,54.20
2019-02-06T04:25:09.388Z,55.00
2019-02-06T04:27:37.443Z,55.10
2019-02-06T04:30:06.688Z,54.70
2019-02-06T04:32:34.880Z,55.10
2019-02-06T04:35:03.138Z,55.40
2019-02-06T04:37:31.120Z,55.90
2019-02-06T04:39:59.154Z,56.40
2019-02-06T04:42:27.182Z,55.90
2019-02-06T04:44:55.146Z,56.80
2019-02-06T04:47:23.549Z,56.50
2019-02-06T04:49:51.593Z,54.30
2019-02-06T04:52:19.599Z,51.40
2019-02-06T04:54:47.609Z,52.50
2019-02-06T04:57:15.722Z,52.70
2019-02-06T04:59:43.749Z,51.30
2019-02-06T05:02:11.745Z,50.60
2019-02-06T05:04:40.093Z,50.10
2019-02-06T05:07:18.598Z,48.60
2019-02-06T05:09:37.951Z,49.20
2019-02-06T05:12:09.302Z,50.10
2019-02-06T05:14:35.797Z,50.10
2019-02-06T05:17:03.912Z,49.20
2019-02-06T05:19:32.004Z,48.90
2019-02-06T05:22:00.403Z,49.10
2019-02-06T05:24:28.603Z,49.50
2019-02-06T05:26:56.676Z,49.70
2019-02-06T05:29:24.763Z,50.00
2019-02-06T05:31:52.750Z,50.30
2019-02-06T05:34:20.849Z,50.00
2019-02-06T05:36:51.026Z,50.30
2019-02-06T05:39:18.710Z,49.80
2019-02-06T05:41:46.846Z,48.80
2019-02-06T05:44:14.910Z,47.20
2019-02-06T05:46:44.696Z,47.50
2019-02-06T05:49:12.747Z,46.40
2019-02-06T05:51:40.804Z,47.10
2019-02-06T05:54:08.987Z,47.10
2019-02-06T05:56:37.336Z,46.00
2019-02-06T05:59:05.336Z,45.10
2019-02-06T06:01:33.450Z,43.70
2019-02-06T06:04:01.451Z,43.60
2019-02-06T06:06:29.457Z,42.50
2019-02-06T06:08:57.755Z,43.20
2019-02-06T06:11:27.642Z,43.30
2019-02-06T06:13:55.938Z,42.90
2019-02-06T06:16:24.219Z,43.20
2019-02-06T06:18:52.232Z,43.60
2019-02-06T06:21:20.210Z,43.70
2019-02-06T06:23:48.314Z,40.10
2019-02-06T06:26:16.300Z,40.60
2019-02-06T06:28:44.308Z,41.40
2019-02-06T06:31:12.654Z,40.70
2019-02-06T06:33:40.717Z,40.90
2019-02-06T06:36:08.849Z,40.90
2019-02-06T06:38:37.210Z,41.30
2019-02-06T06:41:05.307Z,41.50
2019-02-06T06:43:33.459Z,41.30
2019-02-06T06:46:01.474Z,39.50
2019-02-06T06:48:29.795Z,39.60
2019-02-06T06:50:57.802Z,40.00
2019-02-06T06:53:25.763Z,39.60
2019-02-06T06:55:53.837Z,40.20
2019-02-06T06:58:21.900Z,41.10
2019-02-06T07:00:50.005Z,40.70
2019-02-06T07:03:18.040Z,42.10
2019-02-06T07:05:46.306Z,41.90
2019-02-06T07:08:14.407Z,39.20
2019-02-06T07:10:42.511Z,38.10
2019-02-06T07:13:10.941Z,37.00
2019-02-06T07:15:39.231Z,37.60
2019-02-06T07:18:07.406Z,37.70
2019-02-06T07:20:35.513Z,37.10
2019-02-06T07:23:03.568Z,38.20
2019-02-06T07:25:31.918Z,39.00
2019-02-06T07:27:59.970Z,39.80
2019-02-06T07:30:33.008Z,39.10
2019-02-06T07:33:01.324Z,38.50
2019-02-06T07:35:29.458Z,38.50
2019-02-06T07:37:57.795Z,38.30
2019-02-06T07:40:26.496Z,37.70
2019-02-06T07:42:54.604Z,37.70
2019-02-06T07:45:22.883Z,36.90
2019-02-06T07:47:50.883Z,38.50
2019-02-06T07:50:22.135Z,39.70
2019-02-06T07:52:50.330Z,39.70
2019-02-06T07:55:18.679Z,37.10
2019-02-06T07:57:46.886Z,36.80
2019-02-06T08:00:15.077Z,38.30
2019-02-06T08:02:43.255Z,38.80
2019-02-06T08:05:13.390Z,38.60
2019-02-06T08:07:41.854Z,38.00
2019-02-06T08:10:16.645Z,37.70
2019-02-06T08:12:44.984Z,37.10
2019-02-06T08:15:13.631Z,38.80
2019-02-06T08:17:41.671Z,37.00
2019-02-06T08:20:11.877Z,37.90
2019-02-06T08:22:40.057Z,38.80
2019-02-06T08:25:09.492Z,38.70
2019-02-06T08:27:37.626Z,37.50
2019-02-06T08:30:09.823Z,37.00
2019-02-06T08:32:38.119Z,34.60
2019-02-06T08:35:07.004Z,36.30
2019-02-06T08:37:35.388Z,36.80
2019-02-06T08:40:03.983Z,36.30
2019-02-06T08:42:31.923Z,34.10
2019-02-06T08:44:59.918Z,35.60
2019-02-06T08:47:27.831Z,34.00
2019-02-06T08:49:55.868Z,34.40
2019-02-06T08:52:23.921Z,35.00
2019-02-06T08:54:52.110Z,35.80
2019-02-06T08:57:20.666Z,35.20
2019-02-06T08:59:48.750Z,35.90
2019-02-06T09:02:16.810Z,35.70
2019-02-06T09:04:55.248Z,34.90
2019-02-06T09:07:14.648Z,35.80
2019-02-06T09:09:43.603Z,38.10
2019-02-06T09:12:11.790Z,38.80
2019-02-06T09:15:01.330Z,38.90
2019-02-06T09:17:29.465Z,38.90
2019-02-06T09:19:57.450Z,39.80
2019-02-06T09:22:25.388Z,37.70
2019-02-06T09:24:53.384Z,37.10
2019-02-06T09:27:21.844Z,36.80
2019-02-06T09:29:49.935Z,40.00
2019-02-06T09:32:17.920Z,39.10
2019-02-06T09:34:46.034Z,36.70
2019-02-06T09:37:14.414Z,37.70
2019-02-06T09:39:42.734Z,40.20
2019-02-06T09:42:10.815Z,40.70
2019-02-06T09:44:39.076Z,35.80
2019-02-06T09:47:07.079Z,35.10
2019-02-06T09:49:35.132Z,35.60
2019-02-06T09:52:03.195Z,36.40
2019-02-06T09:54:31.178Z,36.80
2019-02-06T09:56:59.147Z,37.40
2019-02-06T09:59:27.137Z,37.00
2019-02-06T10:01:55.562Z,35.40
2019-02-06T10:04:23.587Z,37.70
2019-02-06T10:06:54.267Z,38.50
2019-02-06T10:09:23.189Z,35.90
2019-02-06T10:11:51.482Z,36.50
2019-02-06T10:14:33.401Z,36.20
2019-02-06T10:17:01.443Z,36.20
2019-02-06T10:19:29.656Z,36.90
2019-02-06T10:21:57.715Z,37.20
2019-02-06T10:24:25.780Z,36.00
2019-02-06T10:26:53.778Z,38.90
2019-02-06T10:29:21.858Z,37.90
2019-02-06T10:31:50.164Z,38.70
2019-02-06T10:34:18.224Z,35.20
2019-02-06T10:36:46.317Z,35.60
2019-02-06T10:39:14.333Z,36.10
2019-02-06T10:41:44.547Z,35.30
2019-02-06T10:44:13.235Z,35.90
2019-02-06T10:46:41.418Z,35.60
2019-02-06T10:49:09.527Z,35.70
2019-02-06T10:51:37.576Z,34.40
2019-02-06T10:54:05.713Z,33.90
2019-02-06T10:56:33.720Z,34.80
2019-02-06T10:59:02.089Z,34.60
2019-02-06T11:01:30.212Z,34.90
2019-02-06T11:03:58.246Z,35.60
2019-02-06T11:06:26.411Z,35.80
2019-02-06T11:08:54.371Z,37.00
2019-02-06T11:11:26.004Z,35.70
2019-02-06T11:13:54.045Z,35.70
2019-02-06T11:16:22.223Z,36.60
2019-02-06T11:18:50.208Z,35.00
2019-02-06T11:21:18.710Z,34.60
2019-02-06T11:23:46.678Z,34.70
2019-02-06T11:26:15.101Z,34.90
2019-02-06T11:28:43.279Z,35.80
2019-02-06T11:31:11.574Z,34.20
2019-02-06T11:33:39.677Z,30.60
2019-02-06T11:36:07.812Z,32.30
2019-02-06T11:38:36.251Z,32.70
2019-02-06T11:41:04.327Z,33.40
2019-02-06T11:43:32.350Z,32.90
2019-02-06T11:46:00.479Z,31.00
2019-02-06T11:48:28.645Z,29.10
2019-02-06T11:50:56.871Z,29.40
2019-02-06T11:53:26.610Z,26.20
2019-02-06T11:55:55.676Z,27.70
2019-02-06T11:58:23.888Z,27.80
2019-02-06T12:01:16.951Z,28.00
2019-02-06T12:03:44.933Z,29.30
2019-02-06T12:06:13.290Z,30.10
2019-02-06T12:08:41.294Z,28.90
2019-02-06T12:11:09.421Z,28.00
2019-02-06T12:13:37.507Z,29.30
2019-02-06T12:16:06.130Z,29.30
2019-02-06T12:18:34.323Z,28.30
2019-02-06T12:21:02.614Z,29.10
2019-02-06T12:23:32.552Z,29.40
2019-02-06T12:26:00.734Z,29.00
2019-02-06T12:28:28.872Z,29.70
2019-02-06T12:30:56.764Z,28.00
2019-02-06T12:33:24.854Z,29.60
2019-02-06T12:35:52.817Z,28.00
2019-02-06T12:38:20.882Z,24.60
2019-02-06T12:40:49.218Z,26.50
2019-02-06T12:43:17.489Z,28.30
2019-02-06T12:45:45.592Z,27.60
2019-02-06T12:48:13.521Z,26.90
2019-02-06T12:50:41.467Z,27.00
2019-02-06T12:53:09.637Z,27.00
2019-02-06T12:55:38.262Z,27.40
2019-02-06T12:58:06.976Z,28.10
2019-02-06T13:00:36.030Z,28.00
2019-02-06T13:03:04.637Z,28.30
2019-02-06T13:05:32.817Z,27.40
2019-02-06T13:08:00.846Z,27.70
2019-02-06T13:10:33.759Z,28.30
2019-02-06T13:12:58.946Z,28.50
2019-02-06T13:15:55.678Z,28.60
2019-02-06T13:18:24.248Z,27.60
2019-02-06T13:20:52.868Z,26.70
2019-02-06T13:23:21.056Z,27.70
2019-02-06T13:25:49.047Z,27.70
2019-02-06T13:28:17.035Z,27.50
2019-02-06T13:30:45.300Z,28.00
2019-02-06T13:33:13.519Z,27.00
2019-02-06T13:35:41.611Z,26.20
2019-02-06T13:38:09.759Z,28.60
2019-02-06T13:40:45.279Z,27.30
2019-02-06T13:43:07.944Z,28.00
2019-02-06T13:45:38.887Z,26.20
2019-02-06T13:48:07.051Z,28.30
2019-02-06T13:50:35.339Z,28.60
2019-02-06T13:53:03.676Z,28.80
2019-02-06T13:55:31.752Z,27.10
2019-02-06T13:57:59.872Z,28.20
2019-02-06T14:00:30.232Z,29.10
2019-02-06T14:02:58.184Z,29.10
2019-02-06T14:05:28.336Z,29.50
2019-02-06T14:07:58.567Z,28.60
2019-02-06T14:10:27.459Z,28.40
2019-02-06T14:12:55.713Z,27.60
2019-02-06T14:16:04.653Z,28.00
2019-02-06T14:18:32.951Z,28.30
2019-02-06T14:21:01.078Z,26.80
2019-02-06T14:23:32.713Z,27.20
2019-02-06T14:26:23.965Z,27.80
2019-02-06T14:29:39.774Z,26.70
2019-02-06T14:32:25.200Z,26.70
2019-02-06T14:35:19.859Z,27.30
2019-02-06T14:38:39.638Z,26.70
2019-02-06T14:41:41.447Z,25.50
2019-02-06T14:44:40.512Z,24.90
2019-02-06T14:47:20.999Z,23.90
2019-02-06T14:50:13.242Z,25.70
2019-02-06T14:53:33.934Z,25.40
2019-02-06T14:56:18.403Z,24.00
2019-02-06T14:59:35.483Z,25.40
2019-02-06T15:02:28.341Z,25.10
2019-02-06T15:05:23.887Z,25.30
2019-02-06T15:08:23.743Z,24.30
2019-02-06T15:11:39.695Z,24.00
2019-02-06T15:15:01.413Z,23.00
2019-02-06T15:18:16.301Z,22.80
2019-02-06T15:21:09.444Z,23.80
2019-02-06T15:24:06.040Z,23.90
2019-02-06T15:27:17.188Z,24.20
2019-02-06T15:30:20.644Z,24.70
2019-02-06T15:33:18.941Z,22.30
2019-02-06T15:36:34.475Z,22.10
2019-02-06T15:39:56.684Z,23.00
2019-02-06T15:43:05.910Z,23.30
2019-02-06T15:45:47.189Z,24.20
2019-02-06T15:48:59.861Z,24.60
2019-02-06T15:52:04.753Z,24.60
2019-02-06T15:55:06.916Z,23.70
2019-02-06T15:58:21.011Z,24.60
2019-02-06T16:01:29.265Z,23.20
2019-02-06T16:04:38.915Z,23.30
2019-02-06T16:07:38.974Z,24.70
2019-02-06T16:10:33.027Z,24.80
2019-02-06T16:13:22.548Z,24.30
2019-02-06T16:16:41.398Z,23.60
2019-02-06T16:19:45.094Z,25.00
2019-02-06T16:22:54.826Z,25.90
2019-02-06T16:25:53.150Z,26.70
2019-02-06T16:29:07.332Z,28.00
2019-02-06T16:32:20.190Z,25.00
2019-02-06T16:35:29.747Z,24.90
2019-02-06T16:38:18.826Z,24.30
2019-02-06T16:41:30.355Z,24.50
2019-02-06T16:44:55.438Z,25.60
2019-02-06T16:47:45.778Z,26.50
2019-02-06T16:50:31.916Z,28.30
2019-02-06T16:53:32.566Z,26.10
2019-02-06T16:56:39.726Z,26.70
2019-02-06T16:59:40.609Z,26.30
2019-02-06T17:02:52.226Z,27.60
2019-02-06T17:05:31.189Z,27.90
2019-02-06T17:08:49.654Z,29.00
2019-02-06T17:11:45.521Z,28.40
2019-02-06T17:15:34.253Z,27.60
2019-02-06T17:18:26.775Z,28.10
2019-02-06T17:21:14.934Z,27.80
2019-02-06T17:24:17.243Z,29.80
2019-02-06T17:27:36.228Z,30.70
2019-02-06T17:30:48.939Z,30.60
2019-02-06T17:33:51.421Z,30.50
2019-02-06T17:36:45.802Z,28.10
2019-02-06T17:39:28.720Z,27.70
2019-02-06T17:42:15.867Z,28.60
2019-02-06T17:45:31.595Z,28.80
2019-02-06T17:48:08.296Z,29.10
2019-02-06T17:51:32.680Z,28.80
2019-02-06T17:54:48.163Z,31.20
2019-02-06T17:57:16.181Z,30.10
2019-02-06T17:59:44.454Z,26.30
2019-02-06T18:02:12.449Z,25.80
2019-02-06T18:04:42.750Z,27.20
2019-02-06T18:08:18.748Z,28.60
2019-02-06T18:10:44.683Z,29.20
2019-02-06T18:13:12.955Z,29.20
2019-02-06T18:16:05.109Z,28.80
2019-02-06T18:18:33.144Z,29.50
2019-02-06T18:21:01.262Z,29.20
2019-02-06T18:23:29.250Z,28.10
2019-02-06T18:25:57.316Z,29.20
2019-02-06T18:28:25.466Z,29.30
2019-02-06T18:30:53.967Z,28.60
2019-02-06T18:33:24.198Z,29.70
2019-02-06T18:35:52.317Z,29.00
2019-02-06T18:38:20.383Z,29.60
2019-02-06T18:40:48.824Z,29.70
2019-02-06T18:43:17.083Z,31.20
2019-02-06T18:45:45.517Z,30.40
2019-02-06T18:48:13.910Z,29.00
2019-02-06T18:50:41.994Z,30.60
2019-02-06T18:53:10.241Z,31.30
2019-02-06T18:55:38.674Z,32.00
2019-02-06T18:58:07.439Z,31.60
2019-02-06T19:00:36.733Z,31.90
2019-02-06T19:03:08.242Z,32.70
2019-02-06T19:05:37.003Z,33.50
2019-02-06T19:08:05.839Z,35.30
2019-02-06T19:10:34.577Z,35.20
2019-02-06T19:13:03.495Z,35.00
2019-02-06T19:16:21.767Z,35.70
2019-02-06T19:18:48.376Z,36.70
2019-02-06T19:21:18.141Z,37.60
2019-02-06T19:23:46.961Z,37.90
2019-02-06T19:26:16.036Z,37.70
2019-02-06T19:28:45.044Z,37.70
2019-02-06T19:31:14.016Z,38.70
2019-02-06T19:33:44.641Z,39.20
2019-02-06T19:36:13.637Z,38.20
2019-02-06T19:38:42.997Z,38.10
2019-02-06T19:41:12.118Z,38.60
2019-02-06T19:43:45.374Z,38.20
2019-02-06T19:46:14.331Z,38.60
2019-02-06T19:48:47.339Z,38.90
2019-02-06T19:51:16.494Z,39.00
2019-02-06T19:53:45.632Z,38.80
2019-02-06T19:56:14.570Z,38.60
2019-02-06T19:58:46.611Z,39.50
2019-02-06T20:01:24.477Z,39.10
2019-02-06T20:03:53.637Z,38.70
2019-02-06T20:06:32.805Z,38.80
2019-02-06T20:09:12.659Z,38.20
2019-02-06T20:11:43.302Z,38.00
2019-02-06T20:14:16.744Z,38.60
2019-02-06T20:17:01.975Z,39.30
2019-02-06T20:19:31.483Z,39.70
2019-02-06T20:22:00.755Z,38.70
2019-02-06T20:24:30.217Z,39.60
2019-02-06T20:26:59.677Z,40.20
2019-02-06T20:36:57.494Z,40.70
2019-02-06T20:44:32.974Z,40.10
2019-02-06T20:48:08.654Z,40.00
2019-02-06T20:50:25.380Z,39.60
2019-02-06T20:52:55.492Z,40.40
2019-02-06T20:55:36.477Z,40.70
2019-02-06T20:58:10.728Z,40.90
2019-02-06T21:00:41.132Z,41.00
2019-02-06T21:03:10.419Z,40.90
2019-02-06T21:05:42.098Z,40.40
2019-02-06T21:08:34.847Z,40.30
2019-02-06T21:11:28.060Z,40.90
2019-02-06T21:14:04.214Z,41.40
2019-02-06T21:17:03.590Z,41.30
2019-02-06T21:19:32.805Z,39.60
2019-02-06T21:22:04.539Z,41.30
2019-02-06T21:24:34.005Z,41.80
2019-02-06T21:27:16.673Z,40.60
2019-02-06T21:30:19.800Z,40.60
2019-02-06T21:32:58.100Z,41.70
2019-02-06T21:36:08.420Z,40.60
2019-02-06T21:38:36.982Z,40.80
2019-02-06T21:41:14.492Z,41.00
2019-02-06T21:43:50.763Z,40.50
2019-02-06T21:46:37.324Z,40.30
2019-02-06T21:49:28.269Z,40.80
2019-02-06T21:51:59.629Z,40.40
2019-02-06T21:54:38.973Z,40.20
2019-02-06T21:57:42.514Z,40.40
2019-02-06T22:01:17.116Z,40.40
2019-02-06T22:04:28.296Z,40.50
2019-02-06T22:07:47.642Z,40.20
2019-02-06T22:10:49.413Z,41.10
2019-02-06T22:13:26.374Z,41.20
2019-02-06T22:16:54.540Z,41.10
2019-02-06T22:19:57.780Z,41.30
2019-02-06T22:22:26.948Z,41.00
2019-02-06T22:25:13.339Z,41.40
2019-02-06T22:27:51.867Z,41.50
2019-02-06T22:30:44.338Z,40.80
2019-02-06T22:33:28.298Z,40.30
2019-02-06T22:36:10.810Z,40.80
2019-02-06T22:38:51.400Z,40.70
2019-02-06T22:41:31.038Z,40.20
2019-02-06T22:44:08.698Z,40.00
2019-02-06T22:46:43.951Z,40.20
2019-02-06T22:49:22.869Z,40.40
2019-02-06T22:52:03.636Z,40.90
2019-02-06T22:54:42.867Z,40.50
2019-02-06T22:57:44.703Z,41.00
2019-02-06T23:01:00.037Z,40.80
2019-02-06T23:03:58.592Z,41.10
2019-02-06T23:06:51.424Z,40.50
2019-02-06T23:09:40.428Z,39.00
2019-02-06T23:12:13.350Z,39.30
2019-02-06T23:14:49.015Z,39.90
2019-02-06T23:17:52.933Z,40.40
2019-02-06T23:20:33.842Z,40.40
2019-02-06T23:23:13.883Z,40.00
2019-02-06T23:25:48.171Z,40.80
2019-02-06T23:28:19.191Z,40.70
2019-02-06T23:30:53.955Z,42.00
2019-02-06T23:33:23.020Z,41.00
2019-02-06T23:36:05.141Z,41.80
2019-02-06T23:38:32.932Z,41.40
2019-02-06T23:41:11.900Z,39.60
2019-02-06T23:43:47.728Z,40.80
2019-02-06T23:46:35.725Z,40.80
2019-02-06T23:49:20.510Z,38.50
2019-02-06T23:51:57.288Z,36.70
2019-02-06T23:54:37.126Z,36.70
2019-02-06T23:57:16.039Z,37.40
2019-02-06T23:59:47.358Z,35.40
